sensor_id;sensor_type;location;lat;lon;timestamp;P1;durP1;ratioP1;P2;durP2;ratioP2
30647;SDS011;17683;53.360;9.736;2024-02-16T00:00:24;5.80;;;4.43;;
30647;SDS011;17683;53.360;9.736;2024-02-16T00:02:50;8.20;;;4.90;;
30647;SDS011;17683;53.360;9.736;2024-02-16T00:05:16;8.38;;;5.32;;
30647;SDS011;17683;53.360;9.736;2024-02-16T00:07:43;8.32;;;5.30;;
30647;SDS011;17683;53.360;9.736;2024-02-16T00:10:09;8.57;;;4.97;;
30647;SDS011;17683;53.360;9.736;2024-02-16T00:12:35;7.30;;;4.00;;
30647;SDS011;17683;53.360;9.736;2024-02-16T00:15:02;9.98;;;4.22;;
30647;SDS011;17683;53.360;9.736;2024-02-16T00:17:28;8.30;;;4.68;;
30647;SDS011;17683;53.360;9.736;2024-02-16T00:19:54;9.50;;;4.50;;
30647;SDS011;17683;53.360;9.736;2024-02-16T00:22:23;10.43;;;4.38;;
30647;SDS011;17683;53.360;9.736;2024-02-16T00:24:49;6.40;;;4.07;;
30647;SDS011;17683;53.360;9.736;2024-02-16T00:27:15;6.35;;;3.88;;
30647;SDS011;17683;53.360;9.736;2024-02-16T00:29:41;10.68;;;4.32;;
30647;SDS011;17683;53.360;9.736;2024-02-16T00:32:08;7.50;;;4.15;;
30647;SDS011;17683;53.360;9.736;2024-02-16T00:34:34;9.50;;;3.50;;
30647;SDS011;17683;53.360;9.736;2024-02-16T00:37:01;5.22;;;3.42;;
30647;SDS011;17683;53.360;9.736;2024-02-16T00:39:28;6.00;;;3.75;;
30647;SDS011;17683;53.360;9.736;2024-02-16T00:41:54;7.22;;;3.63;;
30647;SDS011;17683;53.360;9.736;2024-02-16T00:44:20;5.68;;;2.92;;
30647;SDS011;17683;53.360;9.736;2024-02-16T00:46:46;6.13;;;3.97;;
30647;SDS011;17683;53.360;9.736;2024-02-16T00:49:12;8.77;;;4.20;;
30647;SDS011;17683;53.360;9.736;2024-02-16T00:51:38;7.88;;;3.33;;
30647;SDS011;17683;53.360;9.736;2024-02-16T00:54:04;5.57;;;3.60;;
30647;SDS011;17683;53.360;9.736;2024-02-16T00:56:31;9.38;;;3.63;;
30647;SDS011;17683;53.360;9.736;2024-02-16T00:58:57;8.70;;;3.63;;
30647;SDS011;17683;53.360;9.736;2024-02-16T01:01:23;8.80;;;3.78;;
30647;SDS011;17683;53.360;9.736;2024-02-16T01:03:51;6.30;;;3.20;;
30647;SDS011;17683;53.360;9.736;2024-02-16T01:06:18;6.25;;;3.20;;
30647;SDS011;17683;53.360;9.736;2024-02-16T01:08:44;6.93;;;3.53;;
30647;SDS011;17683;53.360;9.736;2024-02-16T01:11:10;8.40;;;3.40;;
30647;SDS011;17683;53.360;9.736;2024-02-16T01:13:35;4.40;;;2.85;;
30647;SDS011;17683;53.360;9.736;2024-02-16T01:16:02;6.25;;;3.38;;
30647;SDS011;17683;53.360;9.736;2024-02-16T01:18:28;5.53;;;3.10;;
30647;SDS011;17683;53.360;9.736;2024-02-16T01:20:55;9.15;;;3.65;;
30647;SDS011;17683;53.360;9.736;2024-02-16T01:23:21;5.35;;;3.67;;
30647;SDS011;17683;53.360;9.736;2024-02-16T01:25:47;7.38;;;3.35;;
30647;SDS011;17683;53.360;9.736;2024-02-16T01:28:13;8.82;;;3.55;;
30647;SDS011;17683;53.360;9.736;2024-02-16T01:30:39;8.65;;;3.58;;
30647;SDS011;17683;53.360;9.736;2024-02-16T01:33:05;8.75;;;3.35;;
30647;SDS011;17683;53.360;9.736;2024-02-16T01:35:34;6.10;;;3.25;;
30647;SDS011;17683;53.360;9.736;2024-02-16T01:38:00;5.68;;;3.55;;
30647;SDS011;17683;53.360;9.736;2024-02-16T01:40:27;10.93;;;3.65;;
30647;SDS011;17683;53.360;9.736;2024-02-16T01:42:53;4.78;;;3.38;;
30647;SDS011;17683;53.360;9.736;2024-02-16T01:45:19;8.98;;;3.45;;
30647;SDS011;17683;53.360;9.736;2024-02-16T01:47:47;10.55;;;3.22;;
30647;SDS011;17683;53.360;9.736;2024-02-16T01:50:15;4.50;;;3.38;;
30647;SDS011;17683;53.360;9.736;2024-02-16T01:52:42;7.00;;;3.38;;
30647;SDS011;17683;53.360;9.736;2024-02-16T01:55:09;7.97;;;3.30;;
30647;SDS011;17683;53.360;9.736;2024-02-16T01:57:36;7.57;;;3.05;;
30647;SDS011;17683;53.360;9.736;2024-02-16T02:00:05;7.35;;;3.72;;
30647;SDS011;17683;53.360;9.736;2024-02-16T02:02:38;5.18;;;3.38;;
30647;SDS011;17683;53.360;9.736;2024-02-16T02:05:04;4.68;;;3.20;;
30647;SDS011;17683;53.360;9.736;2024-02-16T02:07:49;7.35;;;3.53;;
30647;SDS011;17683;53.360;9.736;2024-02-16T02:10:15;6.82;;;3.58;;
30647;SDS011;17683;53.360;9.736;2024-02-16T02:12:41;6.40;;;3.55;;
30647;SDS011;17683;53.360;9.736;2024-02-16T02:15:08;4.30;;;3.35;;
30647;SDS011;17683;53.360;9.736;2024-02-16T02:17:34;9.32;;;4.13;;
30647;SDS011;17683;53.360;9.736;2024-02-16T02:20:00;6.00;;;3.65;;
30647;SDS011;17683;53.360;9.736;2024-02-16T02:22:29;6.13;;;3.88;;
30647;SDS011;17683;53.360;9.736;2024-02-16T02:24:54;4.75;;;3.40;;
30647;SDS011;17683;53.360;9.736;2024-02-16T02:27:20;5.20;;;3.40;;
30647;SDS011;17683;53.360;9.736;2024-02-16T02:29:46;10.60;;;3.78;;
30647;SDS011;17683;53.360;9.736;2024-02-16T02:32:12;6.25;;;3.78;;
30647;SDS011;17683;53.360;9.736;2024-02-16T02:34:38;8.30;;;4.10;;
30647;SDS011;17683;53.360;9.736;2024-02-16T02:37:04;8.98;;;3.53;;
30647;SDS011;17683;53.360;9.736;2024-02-16T02:39:31;5.55;;;3.20;;
30647;SDS011;17683;53.360;9.736;2024-02-16T02:41:57;7.07;;;4.00;;
30647;SDS011;17683;53.360;9.736;2024-02-16T02:44:23;7.28;;;3.15;;
30647;SDS011;17683;53.360;9.736;2024-02-16T02:46:50;8.68;;;4.10;;
30647;SDS011;17683;53.360;9.736;2024-02-16T02:49:16;6.82;;;3.58;;
30647;SDS011;17683;53.360;9.736;2024-02-16T02:51:42;6.28;;;3.30;;
30647;SDS011;17683;53.360;9.736;2024-02-16T02:54:08;4.78;;;2.83;;
30647;SDS011;17683;53.360;9.736;2024-02-16T02:56:34;5.00;;;3.00;;
30647;SDS011;17683;53.360;9.736;2024-02-16T02:59:00;5.45;;;3.08;;
30647;SDS011;17683;53.360;9.736;2024-02-16T03:01:26;12.02;;;4.25;;
30647;SDS011;17683;53.360;9.736;2024-02-16T03:03:51;9.50;;;3.55;;
30647;SDS011;17683;53.360;9.736;2024-02-16T03:06:17;8.80;;;3.22;;
30647;SDS011;17683;53.360;9.736;2024-02-16T03:08:43;6.57;;;3.30;;
30647;SDS011;17683;53.360;9.736;2024-02-16T03:11:09;8.50;;;3.72;;
30647;SDS011;17683;53.360;9.736;2024-02-16T03:13:35;7.68;;;3.92;;
30647;SDS011;17683;53.360;9.736;2024-02-16T03:16:01;8.07;;;3.22;;
30647;SDS011;17683;53.360;9.736;2024-02-16T03:18:31;7.43;;;3.63;;
30647;SDS011;17683;53.360;9.736;2024-02-16T03:20:59;7.32;;;3.83;;
30647;SDS011;17683;53.360;9.736;2024-02-16T03:23:25;7.70;;;3.53;;
30647;SDS011;17683;53.360;9.736;2024-02-16T03:25:51;5.13;;;3.22;;
30647;SDS011;17683;53.360;9.736;2024-02-16T03:28:17;5.80;;;4.30;;
30647;SDS011;17683;53.360;9.736;2024-02-16T03:30:43;6.40;;;3.45;;
30647;SDS011;17683;53.360;9.736;2024-02-16T03:33:09;9.23;;;3.53;;
30647;SDS011;17683;53.360;9.736;2024-02-16T03:35:35;4.97;;;3.33;;
30647;SDS011;17683;53.360;9.736;2024-02-16T03:38:02;8.95;;;3.55;;
30647;SDS011;17683;53.360;9.736;2024-02-16T03:40:28;6.85;;;3.55;;
30647;SDS011;17683;53.360;9.736;2024-02-16T03:42:54;9.25;;;4.03;;
30647;SDS011;17683;53.360;9.736;2024-02-16T03:45:21;8.55;;;3.80;;
30647;SDS011;17683;53.360;9.736;2024-02-16T03:47:48;6.85;;;3.45;;
30647;SDS011;17683;53.360;9.736;2024-02-16T03:50:14;5.47;;;3.13;;
30647;SDS011;17683;53.360;9.736;2024-02-16T03:52:40;5.80;;;3.70;;
30647;SDS011;17683;53.360;9.736;2024-02-16T03:55:06;5.15;;;3.17;;
30647;SDS011;17683;53.360;9.736;2024-02-16T03:57:33;4.88;;;3.00;;
30647;SDS011;17683;53.360;9.736;2024-02-16T03:59:58;6.45;;;3.05;;
30647;SDS011;17683;53.360;9.736;2024-02-16T04:02:24;6.10;;;3.00;;
30647;SDS011;17683;53.360;9.736;2024-02-16T04:04:50;3.72;;;2.80;;
30647;SDS011;17683;53.360;9.736;2024-02-16T04:07:16;6.93;;;3.55;;
30647;SDS011;17683;53.360;9.736;2024-02-16T04:09:42;8.27;;;3.22;;
30647;SDS011;17683;53.360;9.736;2024-02-16T04:12:08;5.43;;;2.95;;
30647;SDS011;17683;53.360;9.736;2024-02-16T04:14:35;5.15;;;2.80;;
30647;SDS011;17683;53.360;9.736;2024-02-16T04:17:01;5.68;;;3.10;;
30647;SDS011;17683;53.360;9.736;2024-02-16T04:19:27;11.23;;;3.17;;
30647;SDS011;17683;53.360;9.736;2024-02-16T04:21:54;7.18;;;3.55;;
30647;SDS011;17683;53.360;9.736;2024-02-16T04:24:20;6.65;;;3.33;;
30647;SDS011;17683;53.360;9.736;2024-02-16T04:26:46;5.25;;;2.88;;
30647;SDS011;17683;53.360;9.736;2024-02-16T04:29:11;6.57;;;2.95;;
30647;SDS011;17683;53.360;9.736;2024-02-16T04:31:40;7.28;;;2.90;;
30647;SDS011;17683;53.360;9.736;2024-02-16T04:34:11;4.07;;;2.65;;
30647;SDS011;17683;53.360;9.736;2024-02-16T04:36:37;7.68;;;2.53;;
30647;SDS011;17683;53.360;9.736;2024-02-16T04:39:03;6.47;;;2.97;;
30647;SDS011;17683;53.360;9.736;2024-02-16T04:41:29;5.85;;;2.58;;
30647;SDS011;17683;53.360;9.736;2024-02-16T04:43:55;10.45;;;3.17;;
30647;SDS011;17683;53.360;9.736;2024-02-16T04:46:21;8.90;;;3.22;;
30647;SDS011;17683;53.360;9.736;2024-02-16T04:48:47;6.82;;;3.03;;
30647;SDS011;17683;53.360;9.736;2024-02-16T04:51:13;6.85;;;2.40;;
30647;SDS011;17683;53.360;9.736;2024-02-16T04:53:39;12.38;;;3.30;;
30647;SDS011;17683;53.360;9.736;2024-02-16T04:56:04;4.82;;;2.40;;
30647;SDS011;17683;53.360;9.736;2024-02-16T04:58:31;8.20;;;3.15;;
30647;SDS011;17683;53.360;9.736;2024-02-16T05:00:57;6.60;;;2.72;;
30647;SDS011;17683;53.360;9.736;2024-02-16T05:03:23;6.15;;;3.35;;
30647;SDS011;17683;53.360;9.736;2024-02-16T05:05:50;8.50;;;3.47;;
30647;SDS011;17683;53.360;9.736;2024-02-16T05:08:17;5.53;;;3.00;;
30647;SDS011;17683;53.360;9.736;2024-02-16T05:10:43;8.82;;;2.92;;
30647;SDS011;17683;53.360;9.736;2024-02-16T05:13:08;5.72;;;2.78;;
30647;SDS011;17683;53.360;9.736;2024-02-16T05:15:36;6.38;;;2.78;;
30647;SDS011;17683;53.360;9.736;2024-02-16T05:18:02;3.55;;;2.33;;
30647;SDS011;17683;53.360;9.736;2024-02-16T05:20:27;5.55;;;3.15;;
30647;SDS011;17683;53.360;9.736;2024-02-16T05:22:53;6.93;;;2.80;;
30647;SDS011;17683;53.360;9.736;2024-02-16T05:25:19;4.80;;;2.47;;
30647;SDS011;17683;53.360;9.736;2024-02-16T05:27:45;4.38;;;3.10;;
30647;SDS011;17683;53.360;9.736;2024-02-16T05:30:12;4.75;;;2.85;;
30647;SDS011;17683;53.360;9.736;2024-02-16T05:32:40;5.97;;;2.75;;
30647;SDS011;17683;53.360;9.736;2024-02-16T05:35:10;4.15;;;2.55;;
30647;SDS011;17683;53.360;9.736;2024-02-16T05:37:41;9.18;;;3.20;;
30647;SDS011;17683;53.360;9.736;2024-02-16T05:40:17;5.78;;;2.67;;
30647;SDS011;17683;53.360;9.736;2024-02-16T05:42:54;4.75;;;2.22;;
30647;SDS011;17683;53.360;9.736;2024-02-16T05:45:24;4.43;;;2.67;;
30647;SDS011;17683;53.360;9.736;2024-02-16T05:47:51;4.50;;;2.80;;
30647;SDS011;17683;53.360;9.736;2024-02-16T05:50:19;2.67;;;2.20;;
30647;SDS011;17683;53.360;9.736;2024-02-16T05:52:46;5.15;;;2.58;;
30647;SDS011;17683;53.360;9.736;2024-02-16T05:55:12;9.10;;;2.85;;
30647;SDS011;17683;53.360;9.736;2024-02-16T05:57:40;8.85;;;2.33;;
30647;SDS011;17683;53.360;9.736;2024-02-16T06:00:07;7.03;;;2.70;;
30647;SDS011;17683;53.360;9.736;2024-02-16T06:02:35;5.80;;;3.17;;
30647;SDS011;17683;53.360;9.736;2024-02-16T06:05:02;3.85;;;2.70;;
30647;SDS011;17683;53.360;9.736;2024-02-16T06:07:28;9.02;;;3.35;;
30647;SDS011;17683;53.360;9.736;2024-02-16T06:09:55;8.80;;;2.47;;
30647;SDS011;17683;53.360;9.736;2024-02-16T06:12:21;6.38;;;2.38;;
30647;SDS011;17683;53.360;9.736;2024-02-16T06:14:47;6.32;;;3.33;;
30647;SDS011;17683;53.360;9.736;2024-02-16T06:17:18;6.88;;;2.90;;
30647;SDS011;17683;53.360;9.736;2024-02-16T06:19:44;6.93;;;2.78;;
30647;SDS011;17683;53.360;9.736;2024-02-16T06:22:10;7.22;;;2.30;;
30647;SDS011;17683;53.360;9.736;2024-02-16T06:24:36;4.45;;;2.63;;
30647;SDS011;17683;53.360;9.736;2024-02-16T06:27:02;6.80;;;2.65;;
30647;SDS011;17683;53.360;9.736;2024-02-16T06:29:28;5.22;;;2.50;;
30647;SDS011;17683;53.360;9.736;2024-02-16T06:31:55;9.55;;;2.60;;
30647;SDS011;17683;53.360;9.736;2024-02-16T06:34:21;6.03;;;2.13;;
30647;SDS011;17683;53.360;9.736;2024-02-16T06:36:47;7.63;;;2.25;;
30647;SDS011;17683;53.360;9.736;2024-02-16T06:39:13;4.97;;;2.33;;
30647;SDS011;17683;53.360;9.736;2024-02-16T06:41:41;5.70;;;2.55;;
30647;SDS011;17683;53.360;9.736;2024-02-16T06:44:11;5.93;;;2.65;;
30647;SDS011;17683;53.360;9.736;2024-02-16T06:46:37;4.88;;;3.00;;
30647;SDS011;17683;53.360;9.736;2024-02-16T06:49:03;3.45;;;2.25;;
30647;SDS011;17683;53.360;9.736;2024-02-16T06:51:29;6.65;;;2.67;;
30647;SDS011;17683;53.360;9.736;2024-02-16T06:53:55;3.83;;;2.25;;
30647;SDS011;17683;53.360;9.736;2024-02-16T06:56:21;5.50;;;2.10;;
30647;SDS011;17683;53.360;9.736;2024-02-16T06:58:47;5.95;;;2.60;;
30647;SDS011;17683;53.360;9.736;2024-02-16T07:01:13;3.90;;;2.10;;
30647;SDS011;17683;53.360;9.736;2024-02-16T07:03:39;3.83;;;2.60;;
30647;SDS011;17683;53.360;9.736;2024-02-16T07:06:06;7.10;;;2.70;;
30647;SDS011;17683;53.360;9.736;2024-02-16T07:08:38;4.90;;;2.60;;
30647;SDS011;17683;53.360;9.736;2024-02-16T07:11:07;5.97;;;2.30;;
30647;SDS011;17683;53.360;9.736;2024-02-16T07:13:36;3.88;;;2.58;;
30647;SDS011;17683;53.360;9.736;2024-02-16T07:16:03;6.03;;;2.60;;
30647;SDS011;17683;53.360;9.736;2024-02-16T07:18:29;4.00;;;2.22;;
30647;SDS011;17683;53.360;9.736;2024-02-16T07:20:55;4.68;;;2.67;;
30647;SDS011;17683;53.360;9.736;2024-02-16T07:23:22;8.23;;;2.40;;
30647;SDS011;17683;53.360;9.736;2024-02-16T07:25:51;5.13;;;2.45;;
30647;SDS011;17683;53.360;9.736;2024-02-16T07:28:25;5.70;;;2.80;;
30647;SDS011;17683;53.360;9.736;2024-02-16T07:31:08;4.28;;;2.40;;
30647;SDS011;17683;53.360;9.736;2024-02-16T07:33:36;4.95;;;2.45;;
30647;SDS011;17683;53.360;9.736;2024-02-16T07:36:13;3.22;;;2.63;;
30647;SDS011;17683;53.360;9.736;2024-02-16T07:38:44;6.80;;;2.63;;
30647;SDS011;17683;53.360;9.736;2024-02-16T07:41:12;5.68;;;2.40;;
30647;SDS011;17683;53.360;9.736;2024-02-16T07:43:38;3.50;;;2.05;;
30647;SDS011;17683;53.360;9.736;2024-02-16T07:46:04;8.05;;;2.38;;
30647;SDS011;17683;53.360;9.736;2024-02-16T07:48:30;3.60;;;2.30;;
30647;SDS011;17683;53.360;9.736;2024-02-16T07:50:56;4.35;;;2.75;;
30647;SDS011;17683;53.360;9.736;2024-02-16T07:53:24;6.65;;;2.65;;
30647;SDS011;17683;53.360;9.736;2024-02-16T07:55:50;5.18;;;2.53;;
30647;SDS011;17683;53.360;9.736;2024-02-16T07:58:15;4.97;;;2.70;;
30647;SDS011;17683;53.360;9.736;2024-02-16T08:00:41;3.80;;;2.45;;
30647;SDS011;17683;53.360;9.736;2024-02-16T08:03:10;4.32;;;2.28;;
30647;SDS011;17683;53.360;9.736;2024-02-16T08:05:36;3.65;;;2.85;;
30647;SDS011;17683;53.360;9.736;2024-02-16T08:08:02;4.45;;;2.50;;
30647;SDS011;17683;53.360;9.736;2024-02-16T08:10:28;9.63;;;2.85;;
30647;SDS011;17683;53.360;9.736;2024-02-16T08:12:54;6.20;;;3.00;;
30647;SDS011;17683;53.360;9.736;2024-02-16T08:15:20;6.72;;;2.25;;
30647;SDS011;17683;53.360;9.736;2024-02-16T08:17:49;6.25;;;2.25;;
30647;SDS011;17683;53.360;9.736;2024-02-16T08:20:16;5.82;;;2.13;;
30647;SDS011;17683;53.360;9.736;2024-02-16T08:22:41;5.95;;;2.20;;
30647;SDS011;17683;53.360;9.736;2024-02-16T08:25:07;4.97;;;1.98;;
30647;SDS011;17683;53.360;9.736;2024-02-16T08:27:34;4.97;;;2.33;;
30647;SDS011;17683;53.360;9.736;2024-02-16T08:29:59;6.22;;;2.40;;
30647;SDS011;17683;53.360;9.736;2024-02-16T08:32:29;3.90;;;2.30;;
30647;SDS011;17683;53.360;9.736;2024-02-16T08:34:54;5.00;;;2.00;;
30647;SDS011;17683;53.360;9.736;2024-02-16T08:37:21;2.92;;;2.38;;
30647;SDS011;17683;53.360;9.736;2024-02-16T08:39:47;8.65;;;2.60;;
30647;SDS011;17683;53.360;9.736;2024-02-16T08:42:14;3.47;;;2.30;;
30647;SDS011;17683;53.360;9.736;2024-02-16T08:44:39;5.97;;;2.30;;
30647;SDS011;17683;53.360;9.736;2024-02-16T08:47:07;4.60;;;2.05;;
30647;SDS011;17683;53.360;9.736;2024-02-16T08:49:33;10.82;;;2.45;;
30647;SDS011;17683;53.360;9.736;2024-02-16T08:52:00;5.43;;;2.17;;
30647;SDS011;17683;53.360;9.736;2024-02-16T08:54:26;5.05;;;2.40;;
30647;SDS011;17683;53.360;9.736;2024-02-16T08:56:53;3.10;;;1.75;;
30647;SDS011;17683;53.360;9.736;2024-02-16T08:59:19;3.92;;;2.30;;
30647;SDS011;17683;53.360;9.736;2024-02-16T09:01:45;3.90;;;1.85;;
30647;SDS011;17683;53.360;9.736;2024-02-16T09:04:11;9.07;;;1.67;;
30647;SDS011;17683;53.360;9.736;2024-02-16T09:06:37;6.13;;;2.42;;
30647;SDS011;17683;53.360;9.736;2024-02-16T09:09:04;6.43;;;2.42;;
30647;SDS011;17683;53.360;9.736;2024-02-16T09:11:31;7.07;;;2.47;;
30647;SDS011;17683;53.360;9.736;2024-02-16T09:13:57;4.47;;;2.08;;
30647;SDS011;17683;53.360;9.736;2024-02-16T09:16:23;5.93;;;2.47;;
30647;SDS011;17683;53.360;9.736;2024-02-16T09:18:49;2.85;;;2.10;;
30647;SDS011;17683;53.360;9.736;2024-02-16T09:21:15;6.85;;;2.30;;
30647;SDS011;17683;53.360;9.736;2024-02-16T09:23:44;5.00;;;2.00;;
30647;SDS011;17683;53.360;9.736;2024-02-16T09:26:35;4.35;;;1.92;;
30647;SDS011;17683;53.360;9.736;2024-02-16T09:29:02;5.15;;;2.15;;
30647;SDS011;17683;53.360;9.736;2024-02-16T09:31:34;3.33;;;1.85;;
30647;SDS011;17683;53.360;9.736;2024-02-16T09:34:07;6.22;;;2.13;;
30647;SDS011;17683;53.360;9.736;2024-02-16T09:36:32;4.78;;;2.00;;
30647;SDS011;17683;53.360;9.736;2024-02-16T09:39:01;8.15;;;3.22;;
30647;SDS011;17683;53.360;9.736;2024-02-16T09:41:27;5.57;;;1.70;;
30647;SDS011;17683;53.360;9.736;2024-02-16T09:43:56;4.65;;;1.98;;
30647;SDS011;17683;53.360;9.736;2024-02-16T09:46:22;3.42;;;2.03;;
30647;SDS011;17683;53.360;9.736;2024-02-16T09:48:49;5.57;;;2.05;;
30647;SDS011;17683;53.360;9.736;2024-02-16T09:51:17;4.40;;;2.22;;
30647;SDS011;17683;53.360;9.736;2024-02-16T09:53:45;4.25;;;2.03;;
30647;SDS011;17683;53.360;9.736;2024-02-16T09:56:22;6.00;;;2.95;;
30647;SDS011;17683;53.360;9.736;2024-02-16T09:58:50;3.80;;;1.65;;
30647;SDS011;17683;53.360;9.736;2024-02-16T10:01:20;2.63;;;1.90;;
30647;SDS011;17683;53.360;9.736;2024-02-16T10:03:51;4.88;;;1.98;;
30647;SDS011;17683;53.360;9.736;2024-02-16T10:06:17;5.65;;;1.80;;
30647;SDS011;17683;53.360;9.736;2024-02-16T10:08:55;4.15;;;1.98;;
30647;SDS011;17683;53.360;9.736;2024-02-16T10:11:25;2.95;;;1.70;;
30647;SDS011;17683;53.360;9.736;2024-02-16T10:14:01;4.15;;;1.83;;
30647;SDS011;17683;53.360;9.736;2024-02-16T10:16:28;2.90;;;1.88;;
30647;SDS011;17683;53.360;9.736;2024-02-16T10:19:17;5.65;;;2.10;;
30647;SDS011;17683;53.360;9.736;2024-02-16T10:21:42;5.28;;;1.65;;
30647;SDS011;17683;53.360;9.736;2024-02-16T10:24:09;5.38;;;1.73;;
30647;SDS011;17683;53.360;9.736;2024-02-16T10:26:51;2.30;;;1.80;;
30647;SDS011;17683;53.360;9.736;2024-02-16T10:29:24;6.15;;;2.33;;
30647;SDS011;17683;53.360;9.736;2024-02-16T10:31:53;5.50;;;2.28;;
30647;SDS011;17683;53.360;9.736;2024-02-16T10:34:20;5.13;;;1.83;;
30647;SDS011;17683;53.360;9.736;2024-02-16T10:36:49;7.57;;;1.90;;
30647;SDS011;17683;53.360;9.736;2024-02-16T10:39:19;4.03;;;2.00;;
30647;SDS011;17683;53.360;9.736;2024-02-16T10:41:49;5.40;;;2.13;;
30647;SDS011;17683;53.360;9.736;2024-02-16T10:44:18;5.60;;;2.25;;
30647;SDS011;17683;53.360;9.736;2024-02-16T10:47:07;6.57;;;2.25;;
30647;SDS011;17683;53.360;9.736;2024-02-16T10:49:39;3.42;;;2.08;;
30647;SDS011;17683;53.360;9.736;2024-02-16T10:52:05;5.97;;;2.03;;
30647;SDS011;17683;53.360;9.736;2024-02-16T10:54:34;5.70;;;2.40;;
30647;SDS011;17683;53.360;9.736;2024-02-16T10:57:07;5.53;;;2.40;;
30647;SDS011;17683;53.360;9.736;2024-02-16T10:59:42;7.53;;;2.20;;
30647;SDS011;17683;53.360;9.736;2024-02-16T11:02:13;6.30;;;2.17;;
30647;SDS011;17683;53.360;9.736;2024-02-16T11:04:40;5.15;;;2.10;;
30647;SDS011;17683;53.360;9.736;2024-02-16T11:07:19;4.43;;;2.20;;
30647;SDS011;17683;53.360;9.736;2024-02-16T11:09:45;5.93;;;2.55;;
30647;SDS011;17683;53.360;9.736;2024-02-16T11:12:13;5.07;;;2.75;;
30647;SDS011;17683;53.360;9.736;2024-02-16T11:14:43;4.43;;;2.45;;
30647;SDS011;17683;53.360;9.736;2024-02-16T11:17:20;4.68;;;2.20;;
30647;SDS011;17683;53.360;9.736;2024-02-16T11:19:50;5.20;;;2.70;;
30647;SDS011;17683;53.360;9.736;2024-02-16T11:22:19;5.15;;;2.70;;
30647;SDS011;17683;53.360;9.736;2024-02-16T11:24:46;3.83;;;2.38;;
30647;SDS011;17683;53.360;9.736;2024-02-16T11:27:14;7.00;;;2.70;;
30647;SDS011;17683;53.360;9.736;2024-02-16T11:29:44;7.55;;;2.47;;
30647;SDS011;17683;53.360;9.736;2024-02-16T11:32:11;5.80;;;2.63;;
30647;SDS011;17683;53.360;9.736;2024-02-16T11:34:37;4.85;;;3.08;;
30647;SDS011;17683;53.360;9.736;2024-02-16T11:37:06;5.75;;;2.70;;
30647;SDS011;17683;53.360;9.736;2024-02-16T11:39:32;11.00;;;2.58;;
30647;SDS011;17683;53.360;9.736;2024-02-16T11:42:08;5.32;;;3.00;;
30647;SDS011;17683;53.360;9.736;2024-02-16T11:44:38;7.95;;;2.95;;
30647;SDS011;17683;53.360;9.736;2024-02-16T11:47:06;8.35;;;3.13;;
30647;SDS011;17683;53.360;9.736;2024-02-16T11:49:37;6.70;;;2.35;;
30647;SDS011;17683;53.360;9.736;2024-02-16T11:52:07;5.45;;;2.55;;
30647;SDS011;17683;53.360;9.736;2024-02-16T11:54:33;5.28;;;2.42;;
30647;SDS011;17683;53.360;9.736;2024-02-16T11:56:59;3.33;;;2.47;;
30647;SDS011;17683;53.360;9.736;2024-02-16T11:59:25;4.10;;;2.30;;
30647;SDS011;17683;53.360;9.736;2024-02-16T12:04:21;8.52;;;2.63;;
30647;SDS011;17683;53.360;9.736;2024-02-16T12:06:49;6.70;;;2.65;;
30647;SDS011;17683;53.360;9.736;2024-02-16T12:09:20;4.30;;;2.45;;
30647;SDS011;17683;53.360;9.736;2024-02-16T12:11:47;6.07;;;2.33;;
30647;SDS011;17683;53.360;9.736;2024-02-16T12:14:15;6.97;;;3.00;;
30647;SDS011;17683;53.360;9.736;2024-02-16T12:16:49;6.10;;;2.80;;
30647;SDS011;17683;53.360;9.736;2024-02-16T12:19:21;4.70;;;2.55;;
30647;SDS011;17683;53.360;9.736;2024-02-16T12:21:54;6.53;;;2.90;;
30647;SDS011;17683;53.360;9.736;2024-02-16T12:24:23;8.27;;;3.42;;
30647;SDS011;17683;53.360;9.736;2024-02-16T12:26:49;5.60;;;2.70;;
30647;SDS011;17683;53.360;9.736;2024-02-16T12:29:15;7.72;;;3.25;;
30647;SDS011;17683;53.360;9.736;2024-02-16T12:31:42;8.93;;;3.22;;
30647;SDS011;17683;53.360;9.736;2024-02-16T12:34:09;5.22;;;3.38;;
30647;SDS011;17683;53.360;9.736;2024-02-16T12:36:36;10.55;;;3.58;;
30647;SDS011;17683;53.360;9.736;2024-02-16T12:39:03;6.13;;;2.97;;
30647;SDS011;17683;53.360;9.736;2024-02-16T12:41:31;6.45;;;2.97;;
30647;SDS011;17683;53.360;9.736;2024-02-16T12:43:57;8.55;;;3.25;;
30647;SDS011;17683;53.360;9.736;2024-02-16T12:46:23;6.35;;;2.92;;
30647;SDS011;17683;53.360;9.736;2024-02-16T12:48:49;5.07;;;2.60;;
30647;SDS011;17683;53.360;9.736;2024-02-16T12:51:15;3.97;;;3.47;;
30647;SDS011;17683;53.360;9.736;2024-02-16T12:53:41;9.60;;;3.33;;
30647;SDS011;17683;53.360;9.736;2024-02-16T12:56:08;9.43;;;3.50;;
30647;SDS011;17683;53.360;9.736;2024-02-16T12:58:37;6.28;;;3.35;;
30647;SDS011;17683;53.360;9.736;2024-02-16T13:01:04;5.20;;;3.65;;
30647;SDS011;17683;53.360;9.736;2024-02-16T13:03:34;7.30;;;3.47;;
30647;SDS011;17683;53.360;9.736;2024-02-16T13:06:00;8.43;;;3.85;;
30647;SDS011;17683;53.360;9.736;2024-02-16T13:08:28;7.80;;;3.40;;
30647;SDS011;17683;53.360;9.736;2024-02-16T13:10:55;15.70;;;4.97;;
30647;SDS011;17683;53.360;9.736;2024-02-16T13:13:21;7.95;;;3.20;;
30647;SDS011;17683;53.360;9.736;2024-02-16T13:15:48;7.28;;;4.47;;
30647;SDS011;17683;53.360;9.736;2024-02-16T13:18:14;8.07;;;3.28;;
30647;SDS011;17683;53.360;9.736;2024-02-16T13:20:40;10.88;;;4.00;;
30647;SDS011;17683;53.360;9.736;2024-02-16T13:23:09;6.72;;;4.05;;
30647;SDS011;17683;53.360;9.736;2024-02-16T13:25:35;9.98;;;4.45;;
30647;SDS011;17683;53.360;9.736;2024-02-16T13:28:02;7.80;;;4.07;;
30647;SDS011;17683;53.360;9.736;2024-02-16T13:30:28;7.95;;;4.13;;
30647;SDS011;17683;53.360;9.736;2024-02-16T13:32:54;6.57;;;3.08;;
30647;SDS011;17683;53.360;9.736;2024-02-16T13:35:20;8.18;;;3.92;;
30647;SDS011;17683;53.360;9.736;2024-02-16T13:37:45;7.68;;;3.92;;
30647;SDS011;17683;53.360;9.736;2024-02-16T13:40:12;5.13;;;3.65;;
30647;SDS011;17683;53.360;9.736;2024-02-16T13:42:41;7.63;;;3.78;;
30647;SDS011;17683;53.360;9.736;2024-02-16T13:45:07;10.40;;;4.40;;
30647;SDS011;17683;53.360;9.736;2024-02-16T13:47:34;10.50;;;4.32;;
30647;SDS011;17683;53.360;9.736;2024-02-16T13:50:00;7.15;;;4.55;;
30647;SDS011;17683;53.360;9.736;2024-02-16T13:52:26;12.40;;;4.45;;
30647;SDS011;17683;53.360;9.736;2024-02-16T13:54:52;7.93;;;4.07;;
30647;SDS011;17683;53.360;9.736;2024-02-16T13:57:19;6.10;;;4.40;;
30647;SDS011;17683;53.360;9.736;2024-02-16T13:59:45;6.57;;;4.03;;
30647;SDS011;17683;53.360;9.736;2024-02-16T14:02:12;9.05;;;4.13;;
30647;SDS011;17683;53.360;9.736;2024-02-16T14:04:38;8.07;;;3.70;;
30647;SDS011;17683;53.360;9.736;2024-02-16T14:07:04;9.05;;;4.30;;
30647;SDS011;17683;53.360;9.736;2024-02-16T14:09:30;8.45;;;4.65;;
30647;SDS011;17683;53.360;9.736;2024-02-16T14:11:56;8.93;;;4.50;;
30647;SDS011;17683;53.360;9.736;2024-02-16T14:14:26;9.55;;;4.25;;
30647;SDS011;17683;53.360;9.736;2024-02-16T14:16:53;6.85;;;4.28;;
30647;SDS011;17683;53.360;9.736;2024-02-16T14:19:19;8.63;;;4.97;;
30647;SDS011;17683;53.360;9.736;2024-02-16T14:21:46;9.05;;;4.00;;
30647;SDS011;17683;53.360;9.736;2024-02-16T14:24:15;9.90;;;5.03;;
30647;SDS011;17683;53.360;9.736;2024-02-16T14:26:43;7.88;;;4.65;;
30647;SDS011;17683;53.360;9.736;2024-02-16T14:29:09;8.43;;;3.97;;
30647;SDS011;17683;53.360;9.736;2024-02-16T14:31:36;7.20;;;4.25;;
30647;SDS011;17683;53.360;9.736;2024-02-16T14:34:04;10.15;;;5.10;;
30647;SDS011;17683;53.360;9.736;2024-02-16T14:36:30;8.27;;;4.57;;
30647;SDS011;17683;53.360;9.736;2024-02-16T14:38:56;9.25;;;5.15;;
30647;SDS011;17683;53.360;9.736;2024-02-16T14:41:21;11.38;;;4.38;;
30647;SDS011;17683;53.360;9.736;2024-02-16T14:43:48;6.70;;;4.78;;
30647;SDS011;17683;53.360;9.736;2024-02-16T14:46:13;7.60;;;5.25;;
30647;SDS011;17683;53.360;9.736;2024-02-16T14:48:40;12.60;;;4.72;;
30647;SDS011;17683;53.360;9.736;2024-02-16T14:51:06;6.05;;;4.93;;